Time;durP1;ratioP1;P1;durP2;ratioP2;P2;SDS_P1;SDS_P2;PMS_P1;PMS_P2;Temp;Humidity;BMP_temperature;BMP_pressure;BME280_temperature;BME280_humidity;BME280_pressure;Samples;Min_cycle;Max_cycle;Signal;HPM_P1;HPM_P2
2020/12/17 08:57:11;;;;;;;2.08;1.58;;;18.30;70.20;;;;;;5099201;27;20365;-41
2020/12/17 08:59:37;;;;;;;6.68;2.58;;;18.30;70.50;;;;;;5089671;28;20393;-48
2020/12/17 09:02:03;;;;;;;3.08;2.47;;;18.30;70.60;;;;;;5096018;28;20093;-41
2020/12/17 09:04:29;;;;;;;2.83;2.20;;;18.30;70.50;;;;;;5085538;28;20024;-41
2020/12/17 09:06:55;;;;;;;5.78;2.60;;;18.30;70.50;;;;;;5089095;28;20577;-42
2020/12/17 09:09:25;;;;;;;3.33;2.15;;;18.40;70.60;;;;;;5086451;28;20486;-41
2020/12/17 09:11:52;;;;;;;3.80;2.40;;;18.40;70.30;;;;;;5082857;28;20093;-41
2020/12/17 09:14:21;;;;;;;2.80;1.80;;;18.40;70.30;;;;;;5089481;28;20024;-45
2020/12/17 09:16:48;;;;;;;2.35;2.05;;;18.50;70.30;;;;;;5086313;28;20082;-42
2020/12/17 09:19:13;;;;;;;2.30;1.90;;;18.50;70.30;;;;;;5088329;28;20024;-44
2020/12/17 09:21:54;;;;;;;5.00;2.28;;;18.50;70.30;;;;;;5086768;28;20016;-41
2020/12/17 09:24:30;;;;;;;3.80;2.13;;;18.50;70.10;;;;;;5084296;28;20024;-42
2020/12/17 09:27:17;;;;;;;4.00;2.35;;;18.60;70.20;;;;;;5082623;28;20020;-41
2020/12/17 09:30:02;;;;;;;2.20;1.80;;;18.60;70.10;;;;;;5085674;28;20101;-41
2020/12/17 09:32:28;;;;;;;;;;;18.60;70.10;;;;;;5115192;27;20050;-39
2020/12/17 09:35:06;;;;;;;1.60;1.50;;;18.60;70.10;;;;;;5088669;28;19904;-41
2020/12/17 09:37:31;;;;;;;2.80;1.48;;;18.60;69.90;;;;;;5086233;28;20028;-40
2020/12/17 09:39:57;;;;;;;2.75;1.90;;;18.60;69.90;;;;;;5088426;28;20017;-43
2020/12/17 09:42:23;;;;;;;3.55;1.90;;;18.70;69.90;;;;;;5084770;28;20082;-40
2020/12/17 09:44:49;;;;;;;1.45;1.35;;;18.70;69.80;;;;;;5087291;28;20043;-40
2020/12/17 09:47:24;;;;;;;1.88;1.70;;;18.70;69.80;;;;;;5087424;28;20028;-39
2020/12/17 09:49:49;;;;;;;2.33;1.70;;;18.70;69.80;;;;;;5073221;28;20075;-39
2020/12/17 09:52:15;;;;;;;2.13;1.50;;;18.70;69.80;;;;;;5079561;28;20443;-38
2020/12/17 09:54:42;;;;;;;2.28;1.80;;;18.80;69.90;;;;;;5082732;28;20074;-37
2020/12/17 09:57:10;;;;;;;2.97;1.92;;;18.70;69.60;;;;;;5081236;28;20040;-38
2020/12/17 09:59:35;;;;;;;3.50;1.65;;;18.80;69.70;;;;;;5085074;28;20391;-38
2020/12/17 10:02:01;;;;;;;1.67;1.58;;;18.80;69.80;;;;;;5084576;28;20495;-39
2020/12/17 10:04:27;;;;;;;1.35;1.25;;;18.90;69.60;;;;;;5085690;28;20107;-38
2020/12/17 10:06:53;;;;;;;2.30;1.55;;;18.90;69.50;;;;;;5081574;28;20112;-38
2020/12/17 10:09:19;;;;;;;2.35;1.88;;;18.90;69.60;;;;;;5070543;28;20100;-38
2020/12/17 10:11:46;;;;;;;3.22;1.67;;;18.90;69.40;;;;;;5072759;28;20380;-39
2020/12/17 10:14:12;;;;;;;1.60;1.50;;;18.90;69.30;;;;;;5063885;28;20138;-38
2020/12/17 10:16:37;;;;;;;1.40;1.30;;;19.00;69.30;;;;;;5060840;28;20123;-39
2020/12/17 10:19:03;;;;;;;3.70;1.48;;;19.00;69.10;;;;;;5061213;28;20143;-38
2020/12/17 10:21:29;;;;;;;1.48;1.30;;;19.00;69.10;;;;;;5064352;28;20036;-38
2020/12/17 10:23:54;;;;;;;2.47;1.38;;;19.00;69.00;;;;;;5066555;28;20055;-37
2020/12/17 10:26:20;;;;;;;1.30;1.20;;;19.00;69.00;;;;;;5064216;28;20040;-39
2020/12/17 10:28:46;;;;;;;1.85;1.48;;;19.10;69.00;;;;;;5062348;28;20483;-38
2020/12/17 10:31:13;;;;;;;1.35;1.02;;;19.10;68.90;;;;;;5065547;28;20052;-38
2020/12/17 10:33:38;;;;;;;1.30;1.20;;;19.10;68.80;;;;;;5051136;28;20424;-39
2020/12/17 10:36:04;;;;;;;1.10;1.10;;;19.10;68.70;;;;;;5061625;28;20054;-39
2020/12/17 10:38:29;;;;;;;1.50;1.20;;;19.20;68.60;;;;;;5050170;28;20493;-39
2020/12/17 10:40:55;;;;;;;2.95;1.30;;;19.20;68.70;;;;;;5025117;28;20045;-38
2020/12/17 10:43:21;;;;;;;1.20;1.10;;;19.20;68.50;;;;;;5028469;28;20124;-38
2020/12/17 10:45:47;;;;;;;1.25;1.15;;;19.20;68.50;;;;;;5027203;28;20144;-38
2020/12/17 10:48:12;;;;;;;1.10;1.05;;;19.20;68.50;;;;;;5028503;28;20140;-39
2020/12/17 10:50:38;;;;;;;1.20;1.10;;;19.20;68.40;;;;;;5029199;28;20413;-39
2020/12/17 10:53:03;;;;;;;1.75;1.10;;;19.20;68.50;;;;;;5028465;28;20055;-39
2020/12/17 10:55:29;;;;;;;1.52;1.13;;;19.20;68.50;;;;;;5026469;28;20427;-39
2020/12/17 10:57:54;;;;;;;1.50;1.10;;;19.20;68.90;;;;;;5028205;28;20081;-38
2020/12/17 11:00:20;;;;;;;2.78;1.23;;;19.20;68.80;;;;;;5027707;28;20089;-39
2020/12/17 11:02:46;;;;;;;1.08;1.05;;;19.20;69.00;;;;;;5030225;28;20048;-39
2020/12/17 11:05:11;;;;;;;1.02;0.98;;;19.20;69.20;;;;;;5029885;28;20041;-40
2020/12/17 11:07:37;;;;;;;1.00;1.00;;;19.30;69.50;;;;;;5029023;28;20075;-38
2020/12/17 11:10:03;;;;;;;2.97;1.23;;;19.30;69.80;;;;;;5033295;28;20064;-38
2020/12/17 11:12:29;;;;;;;6.50;1.67;;;19.30;69.80;;;;;;5027938;28;20049;-39
2020/12/17 11:14:55;;;;;;;1.95;0.95;;;19.40;70.20;;;;;;5024220;28;20041;-38
2020/12/17 11:17:20;;;;;;;2.13;1.30;;;19.40;70.10;;;;;;5028200;28;20069;-39
2020/12/17 11:19:46;;;;;;;1.02;0.95;;;19.40;70.10;;;;;;5026039;28;20049;-38
2020/12/17 11:22:11;;;;;;;1.17;1.00;;;19.40;70.00;;;;;;5026782;28;20045;-38
2020/12/17 11:24:37;;;;;;;1.88;1.15;;;19.40;70.00;;;;;;5027480;28;20064;-38
2020/12/17 11:27:03;;;;;;;2.85;1.10;;;19.50;70.00;;;;;;5026094;28;20056;-39
2020/12/17 11:29:29;;;;;;;1.20;1.08;;;19.50;70.10;;;;;;5028486;28;20044;-38
2020/12/17 11:31:54;;;;;;;1.80;1.30;;;19.50;70.10;;;;;;5026061;28;20472;-39
2020/12/17 11:34:20;;;;;;;1.27;1.17;;;19.50;69.90;;;;;;5026347;28;20037;-38
2020/12/17 11:36:46;;;;;;;1.55;1.08;;;19.50;69.90;;;;;;5025262;28;20054;-38
2020/12/17 11:39:12;;;;;;;2.35;1.23;;;19.60;70.20;;;;;;5025576;28;20052;-39
2020/12/17 11:41:37;;;;;;;2.85;1.40;;;19.60;70.20;;;;;;5030189;28;20079;-39
2020/12/17 11:44:03;;;;;;;2.45;1.00;;;19.70;70.20;;;;;;5027411;28;20061;-39
2020/12/17 11:46:28;;;;;;;1.85;1.08;;;19.80;70.10;;;;;;5026602;28;20060;-38
2020/12/17 11:48:54;;;;;;;4.95;1.13;;;19.80;69.90;;;;;;5026279;28;20037;-38
2020/12/17 11:51:20;;;;;;;3.50;1.60;;;19.80;69.80;;;;;;5026922;28;20041;-38
2020/12/17 11:53:45;;;;;;;3.65;1.35;;;19.80;69.80;;;;;;5028782;28;20094;-38
2020/12/17 11:56:12;;;;;;;1.42;0.93;;;19.80;69.60;;;;;;5023905;28;20081;-41
2020/12/17 11:58:40;;;;;;;1.33;1.23;;;19.80;70.80;;;;;;5022523;28;20133;-40
2020/12/17 12:01:07;;;;;;;2.38;0.80;;;19.90;70.00;;;;;;5021921;28;20045;-39
2020/12/17 12:03:32;;;;;;;2.58;0.90;;;19.90;69.70;;;;;;5022713;28;20056;-39
2020/12/17 12:05:58;;;;;;;1.90;1.20;;;19.90;69.70;;;;;;5022651;28;20701;-39
2020/12/17 12:08:24;;;;;;;1.77;0.80;;;19.90;69.80;;;;;;5023508;28;20049;-39
2020/12/17 12:10:50;;;;;;;6.45;1.25;;;20.00;69.70;;;;;;5023592;28;20062;-39
2020/12/17 12:13:15;;;;;;;2.63;1.00;;;20.00;69.70;;;;;;4673937;28;10000674;-39
2020/12/17 12:15:41;;;;;;;8.75;0.80;;;20.00;69.70;;;;;;5023084;28;20398;-41
2020/12/17 12:18:07;;;;;;;5.75;1.20;;;20.10;69.70;;;;;;5021763;28;20046;-38
2020/12/17 12:20:32;;;;;;;6.28;1.30;;;20.10;69.70;;;;;;5025632;28;20060;-38
2020/12/17 12:22:59;;;;;;;3.45;0.90;;;20.10;69.60;;;;;;5022728;28;20053;-39
2020/12/17 12:25:25;;;;;;;3.00;1.00;;;20.10;69.60;;;;;;5022446;28;20052;-44
2020/12/17 12:27:51;;;;;;;2.97;0.93;;;20.10;69.50;;;;;;5021991;28;20095;-38
2020/12/17 12:30:16;;;;;;;3.95;0.75;;;20.10;69.30;;;;;;5022513;28;20542;-39
2020/12/17 12:32:42;;;;;;;5.25;1.08;;;20.20;69.40;;;;;;5024458;28;20065;-39
2020/12/17 12:35:08;;;;;;;5.03;1.00;;;20.10;69.20;;;;;;5023094;28;20053;-39
2020/12/17 12:37:33;;;;;;;3.72;1.35;;;20.20;69.20;;;;;;5021938;28;20049;-41
2020/12/17 12:39:59;;;;;;;4.60;0.73;;;20.20;69.10;;;;;;5021045;28;20507;-39
2020/12/17 12:42:26;;;;;;;0.95;0.60;;;20.20;69.10;;;;;;5022920;28;20065;-39
2020/12/17 12:44:54;;;;;;;1.48;0.80;;;20.20;69.10;;;;;;5023890;28;20053;-46
2020/12/17 12:47:23;;;;;;;1.52;0.80;;;20.20;69.00;;;;;;5017985;28;20143;-40
2020/12/17 12:49:49;;;;;;;2.45;0.88;;;20.20;68.90;;;;;;5024057;28;20140;-38
2020/12/17 12:52:14;;;;;;;2.17;0.60;;;20.20;69.00;;;;;;5020585;28;20414;-44
2020/12/17 12:54:40;;;;;;;4.35;0.70;;;20.20;69.10;;;;;;5025790;28;20045;-38
2020/12/17 12:57:06;;;;;;;1.77;1.02;;;20.30;69.00;;;;;;5024243;28;20042;-39
2020/12/17 12:59:32;;;;;;;3.22;0.75;;;20.30;68.80;;;;;;5028813;28;20042;-38
2020/12/17 13:01:57;;;;;;;1.30;0.70;;;20.30;68.60;;;;;;5025464;28;20049;-38
2020/12/17 13:04:23;;;;;;;1.55;0.80;;;20.30;68.50;;;;;;5024317;28;20041;-39
2020/12/17 13:06:50;;;;;;;1.55;0.77;;;20.30;68.60;;;;;;5032269;28;20515;-40
2020/12/17 13:09:15;;;;;;;2.75;0.70;;;20.30;68.40;;;;;;5032668;28;20099;-39
2020/12/17 13:11:41;;;;;;;1.00;0.65;;;20.30;68.40;;;;;;5037796;28;20455;-43
2020/12/17 13:14:07;;;;;;;1.88;0.90;;;20.30;68.40;;;;;;5035218;28;20049;-42
2020/12/17 13:16:35;;;;;;;3.60;0.80;;;20.30;68.30;;;;;;5031977;28;20064;-39
2020/12/17 13:19:01;;;;;;;0.85;0.80;;;20.40;68.30;;;;;;5025884;28;20046;-38
2020/12/17 13:21:26;;;;;;;2.28;0.80;;;20.30;68.10;;;;;;5025418;28;20532;-39
2020/12/17 13:23:52;;;;;;;2.28;0.60;;;20.30;67.90;;;;;;5026667;28;20413;-39
2020/12/17 13:26:18;;;;;;;3.50;0.90;;;20.30;68.00;;;;;;5027191;28;20048;-40
2020/12/17 13:28:44;;;;;;;1.30;0.63;;;20.30;67.80;;;;;;5026071;28;20052;-39
2020/12/17 13:31:09;;;;;;;1.63;0.65;;;20.30;67.80;;;;;;5023863;28;20045;-39
2020/12/17 13:33:36;;;;;;;0.77;0.70;;;20.30;67.70;;;;;;5026029;28;20045;-39
2020/12/17 13:36:04;;;;;;;1.30;0.55;;;20.30;67.70;;;;;;5024145;28;20103;-38
2020/12/17 13:38:30;;;;;;;2.05;0.80;;;20.30;67.60;;;;;;5028279;28;20052;-42
2020/12/17 13:40:55;;;;;;;1.58;0.60;;;20.30;67.60;;;;;;5024035;28;20046;-39
2020/12/17 13:43:21;;;;;;;2.28;0.90;;;20.30;68.50;;;;;;5028175;28;20095;-39
2020/12/17 13:45:49;;;;;;;2.47;0.57;;;20.30;67.70;;;;;;5028635;28;20073;-39
2020/12/17 13:48:14;;;;;;;0.88;0.65;;;20.30;67.70;;;;;;5027856;28;20130;-38
2020/12/17 13:50:40;;;;;;;1.88;0.80;;;20.20;67.50;;;;;;5031354;28;20124;-39
2020/12/17 13:53:06;;;;;;;0.80;0.43;;;20.20;67.60;;;;;;5028463;28;20033;-38
2020/12/17 13:55:31;;;;;;;2.33;0.80;;;20.20;67.60;;;;;;5028101;28;20519;-39
2020/12/17 13:57:57;;;;;;;1.17;0.50;;;20.20;67.70;;;;;;5028055;28;20124;-38
2020/12/17 14:00:22;;;;;;;1.90;0.70;;;20.20;67.60;;;;;;5025080;28;20403;-38
2020/12/17 14:02:51;;;;;;;1.08;0.60;;;20.20;67.70;;;;;;5026187;28;20037;-39
2020/12/17 14:05:16;;;;;;;1.42;0.60;;;20.20;67.60;;;;;;5030980;28;20509;-39
2020/12/17 14:07:42;;;;;;;1.10;0.70;;;20.10;67.60;;;;;;5028808;28;20241;-39
2020/12/17 14:10:08;;;;;;;1.65;0.68;;;20.10;67.60;;;;;;5027996;28;20402;-38
2020/12/17 14:12:34;;;;;;;0.77;0.50;;;20.10;67.50;;;;;;5028637;28;20045;-39
2020/12/17 14:14:59;;;;;;;1.10;0.75;;;20.10;67.50;;;;;;5026481;28;20058;-38
2020/12/17 14:17:25;;;;;;;1.27;0.55;;;20.10;67.50;;;;;;5029616;28;20080;-39
2020/12/17 14:19:50;;;;;;;1.65;0.60;;;20.10;67.60;;;;;;5027164;28;20156;-38
2020/12/17 14:22:16;;;;;;;0.70;0.68;;;20.10;67.60;;;;;;5025084;28;20049;-38
2020/12/17 14:24:42;;;;;;;3.70;0.50;;;20.10;67.50;;;;;;5028769;28;20512;-38
2020/12/17 14:27:07;;;;;;;1.15;0.50;;;20.10;67.60;;;;;;5027713;28;20041;-38
2020/12/17 14:29:33;;;;;;;1.55;0.60;;;20.00;67.50;;;;;;5029834;28;20136;-38
2020/12/17 14:32:01;;;;;;;1.30;0.65;;;20.10;67.60;;;;;;5028975;28;20033;-38
2020/12/17 14:34:27;;;;;;;0.82;0.50;;;20.00;67.50;;;;;;5060986;28;20051;-38
2020/12/17 14:36:55;;;;;;;1.58;0.63;;;20.00;67.50;;;;;;5058504;28;20048;-38
2020/12/17 14:39:21;;;;;;;0.82;0.50;;;20.00;67.50;;;;;;5029195;28;20120;-38
2020/12/17 14:41:47;;;;;;;0.60;0.57;;;20.00;67.50;;;;;;5028361;28;20168;-39
2020/12/17 14:44:12;;;;;;;1.38;0.60;;;20.00;67.50;;;;;;5028895;28;20037;-39
2020/12/17 14:46:38;;;;;;;1.00;0.60;;;20.00;67.50;;;;;;5028163;28;20052;-38
2020/12/17 14:49:04;;;;;;;0.80;0.60;;;20.00;67.40;;;;;;5027401;28;20390;-38
2020/12/17 14:51:29;;;;;;;0.70;0.60;;;19.90;67.40;;;;;;5028550;28;20053;-37
2020/12/17 14:53:55;;;;;;;0.77;0.60;;;20.00;67.40;;;;;;5028171;28;20536;-38
2020/12/17 14:56:27;;;;;;;0.80;0.50;;;19.90;67.50;;;;;;5029862;28;20087;-37
2020/12/17 14:58:52;;;;;;;0.95;0.90;;;19.90;67.40;;;;;;5028152;28;20151;-37
2020/12/17 15:01:18;;;;;;;1.75;0.40;;;19.90;67.40;;;;;;5026896;28;20136;-36
2020/12/17 15:03:43;;;;;;;1.75;0.60;;;19.90;67.60;;;;;;5022960;28;20033;-36
2020/12/17 15:06:09;;;;;;;4.05;0.80;;;19.90;67.60;;;;;;5027893;28;20045;-35
2020/12/17 15:08:34;;;;;;;2.05;0.50;;;19.90;67.50;;;;;;5027563;28;20554;-36
2020/12/17 15:11:00;;;;;;;0.40;0.30;;;19.90;67.40;;;;;;5025018;28;20136;-36
2020/12/17 15:13:27;;;;;;;1.98;0.70;;;19.90;67.60;;;;;;5026052;28;20045;-36
2020/12/17 15:15:53;;;;;;;2.00;0.80;;;19.90;67.60;;;;;;5027863;28;20049;-36
2020/12/17 15:18:19;;;;;;;1.80;0.57;;;19.90;67.60;;;;;;5027431;28;20045;-36
2020/12/17 15:21:03;;;;;;;2.15;0.47;;;19.90;67.70;;;;;;5028881;28;20046;-36
2020/12/17 15:23:35;;;;;;;0.83;0.50;;;19.90;67.80;;;;;;5048835;28;20378;-36
2020/12/17 15:26:01;;;;;;;0.98;0.50;;;19.80;67.80;;;;;;5046270;28;20481;-36
2020/12/17 15:28:27;;;;;;;4.50;0.80;;;19.80;67.80;;;;;;5024631;28;20176;-37
2020/12/17 15:30:53;;;;;;;0.50;0.40;;;19.80;67.90;;;;;;5028523;28;20045;-44
2020/12/17 15:33:18;;;;;;;1.08;0.60;;;19.80;68.10;;;;;;5026585;28;20099;-38
2020/12/17 15:35:47;;;;;;;2.58;1.00;;;19.80;67.90;;;;;;5028263;28;20042;-37
2020/12/17 15:38:13;;;;;;;2.83;0.60;;;19.80;68.00;;;;;;5036049;28;20049;-37
2020/12/17 15:40:40;;;;;;;4.15;0.68;;;19.80;68.10;;;;;;5033382;28;20044;-37
2020/12/17 15:43:08;;;;;;;1.33;0.57;;;19.80;68.10;;;;;;5019160;28;20073;-40
2020/12/17 15:45:34;;;;;;;1.17;0.50;;;19.80;68.20;;;;;;5023195;28;20038;-37
2020/12/17 15:48:00;;;;;;;0.65;0.40;;;19.80;68.20;;;;;;5015042;28;20053;-39
2020/12/17 15:50:25;;;;;;;2.17;0.50;;;19.80;68.20;;;;;;5025565;28;20056;-40
2020/12/17 15:52:51;;;;;;;2.92;0.45;;;19.80;68.20;;;;;;5023534;28;20045;-39
2020/12/17 15:55:17;;;;;;;3.50;1.05;;;19.70;68.20;;;;;;5020585;28;20054;-40
2020/12/17 15:57:42;;;;;;;1.33;0.50;;;19.70;68.40;;;;;;5024597;28;20452;-40
2020/12/17 16:00:08;;;;;;;1.13;0.60;;;19.70;68.40;;;;;;5025231;28;20570;-39
2020/12/17 16:02:33;;;;;;;2.08;0.50;;;19.80;68.50;;;;;;5027670;28;20065;-38
2020/12/17 16:04:59;;;;;;;1.15;0.60;;;19.80;68.50;;;;;;5023332;28;20053;-40
2020/12/17 16:07:30;;;;;;;2.13;0.50;;;19.80;68.40;;;;;;5023219;28;20056;-41
2020/12/17 16:09:59;;;;;;;4.18;0.60;;;19.80;68.50;;;;;;5016302;28;20176;-46
2020/12/17 16:12:24;;;;;;;0.45;0.43;;;19.70;68.40;;;;;;5050216;28;20049;-44
2020/12/17 16:14:50;;;;;;;1.38;0.40;;;19.70;68.50;;;;;;5025419;28;20049;-44
2020/12/17 16:17:15;;;;;;;3.25;0.60;;;19.70;68.40;;;;;;5028952;28;20505;-43
2020/12/17 16:19:41;;;;;;;4.97;0.50;;;19.70;69.30;;;;;;5024958;28;20116;-43
2020/12/17 16:22:07;;;;;;;1.05;0.35;;;19.70;68.50;;;;;;5028649;28;20052;-44
2020/12/17 16:24:32;;;;;;;2.85;0.57;;;19.70;68.40;;;;;;5035324;28;20045;-45
2020/12/17 16:26:58;;;;;;;2.97;0.50;;;19.70;68.50;;;;;;5031435;28;20156;-45
2020/12/17 16:29:24;;;;;;;4.35;0.30;;;19.70;68.50;;;;;;5036598;28;20033;-44
2020/12/17 16:31:49;;;;;;;0.82;0.38;;;19.70;68.50;;;;;;5030104;28;20094;-37
2020/12/17 16:34:15;;;;;;;1.90;0.40;;;19.70;68.60;;;;;;5033478;28;20017;-37
2020/12/17 16:36:40;;;;;;;2.25;0.55;;;19.60;68.50;;;;;;5028308;28;20041;-37
2020/12/17 16:39:06;;;;;;;0.52;0.40;;;19.70;68.50;;;;;;5026747;28;20141;-37
2020/12/17 16:41:32;;;;;;;0.60;0.50;;;19.60;68.40;;;;;;5027643;28;20045;-38
2020/12/17 16:43:58;;;;;;;2.35;0.50;;;19.60;68.50;;;;;;5025590;28;20084;-37
2020/12/17 16:46:24;;;;;;;0.95;0.40;;;19.60;68.30;;;;;;5026198;28;20574;-37
2020/12/17 16:48:49;;;;;;;1.15;0.35;;;19.60;68.40;;;;;;5025154;28;20041;-39
2020/12/17 16:51:18;;;;;;;2.30;0.70;;;19.60;68.40;;;;;;5025575;28;20409;-39
2020/12/17 16:53:44;;;;;;;3.55;0.68;;;19.60;69.30;;;;;;5031701;28;20049;-44
2020/12/17 16:56:10;;;;;;;0.75;0.50;;;19.60;68.50;;;;;;5029151;28;20477;-38
2020/12/17 16:58:36;;;;;;;2.42;0.85;;;19.60;68.50;;;;;;5031093;28;20060;-38
2020/12/17 17:01:01;;;;;;;0.40;0.30;;;19.60;68.50;;;;;;5026449;28;20046;-38
2020/12/17 17:03:29;;;;;;;3.83;0.82;;;19.60;68.40;;;;;;5030676;28;20037;-38
2020/12/17 17:05:55;;;;;;;2.83;0.60;;;19.60;68.40;;;;;;5026094;28;20124;-39
2020/12/17 17:08:21;;;;;;;6.03;0.40;;;19.50;68.50;;;;;;5027832;28;20129;-37
2020/12/17 17:10:46;;;;;;;1.45;0.43;;;19.50;69.20;;;;;;5026130;28;20045;-38
2020/12/17 17:13:12;;;;;;;0.65;0.45;;;19.50;68.50;;;;;;5024324;28;20079;-38
2020/12/17 17:15:37;;;;;;;2.40;0.63;;;19.50;68.60;;;;;;5022702;28;20060;-38
2020/12/17 17:18:03;;;;;;;2.60;0.45;;;19.50;68.60;;;;;;5027646;28;20037;-38
2020/12/17 17:20:29;;;;;;;1.08;0.52;;;19.50;68.80;;;;;;5031102;28;20498;-38
2020/12/17 17:22:54;;;;;;;1.02;0.50;;;19.50;68.90;;;;;;5025419;28;20038;-42
2020/12/17 17:25:20;;;;;;;2.00;0.63;;;19.50;68.80;;;;;;5026754;28;20034;-40
2020/12/17 17:27:46;;;;;;;1.55;0.73;;;19.40;68.80;;;;;;5024494;28;20048;-38
2020/12/17 17:30:11;;;;;;;3.95;0.70;;;19.40;68.90;;;;;;5057108;28;20053;-39
2020/12/17 17:32:37;;;;;;;5.45;0.60;;;19.40;68.90;;;;;;5028491;28;20482;-40
2020/12/17 17:35:03;;;;;;;1.05;0.50;;;19.40;69.00;;;;;;5027083;28;20052;-38
2020/12/17 17:37:28;;;;;;;2.53;0.50;;;19.40;69.00;;;;;;5034889;28;20068;-39
2020/12/17 17:39:54;;;;;;;2.40;0.63;;;19.40;68.90;;;;;;5029998;28;20439;-39
2020/12/17 17:42:20;;;;;;;2.33;0.52;;;19.40;68.90;;;;;;5027869;28;20523;-37
2020/12/17 17:44:45;;;;;;;5.75;0.82;;;19.40;68.90;;;;;;5029810;28;20129;-38
2020/12/17 17:47:11;;;;;;;4.28;0.88;;;19.40;68.90;;;;;;5029510;28;20053;-39
2020/12/17 17:49:37;;;;;;;7.90;1.02;;;19.40;68.90;;;;;;5028619;28;20049;-38
2020/12/17 17:52:03;;;;;;;1.27;0.70;;;19.40;68.80;;;;;;5027953;28;20052;-38
2020/12/17 17:54:29;;;;;;;2.20;0.80;;;19.40;68.80;;;;;;5049468;28;20425;-37
2020/12/17 17:56:55;;;;;;;2.05;0.43;;;19.40;68.80;;;;;;5028507;28;20081;-37
2020/12/17 17:59:25;;;;;;;1.65;0.80;;;19.40;68.80;;;;;;4674526;28;9999962;-38
2020/12/17 18:01:51;;;;;;;2.08;0.57;;;19.40;68.60;;;;;;5023203;28;20079;-37
2020/12/17 18:04:16;;;;;;;3.20;0.75;;;19.40;69.20;;;;;;5022859;28;20072;-38
2020/12/17 18:06:42;;;;;;;4.47;0.70;;;19.40;68.60;;;;;;5021459;28;20124;-37
2020/12/17 18:09:08;;;;;;;2.92;0.88;;;19.40;68.50;;;;;;5022284;28;20045;-41
2020/12/17 18:11:37;;;;;;;1.42;0.60;;;19.40;68.40;;;;;;5026722;28;20037;-37
2020/12/17 18:14:04;;;;;;;1.55;0.80;;;19.40;68.30;;;;;;5019365;28;20107;-38
2020/12/17 18:16:29;;;;;;;4.63;0.70;;;19.50;68.50;;;;;;5019230;28;20058;-38
2020/12/17 18:18:55;;;;;;;2.90;0.98;;;19.40;68.30;;;;;;5024629;28;20053;-38
2020/12/17 18:21:21;;;;;;;2.85;0.95;;;19.50;68.40;;;;;;5023895;28;20065;-37
2020/12/17 18:23:47;;;;;;;3.88;0.70;;;19.50;68.20;;;;;;5025846;28;20712;-37
2020/12/17 18:26:12;;;;;;;2.40;0.70;;;19.50;68.20;;;;;;5024686;28;20132;-37
2020/12/17 18:28:40;;;;;;;1.17;0.68;;;19.50;68.30;;;;;;5018653;28;20033;-38
2020/12/17 18:31:07;;;;;;;3.13;1.10;;;19.50;68.30;;;;;;5020681;28;20068;-36
2020/12/17 18:33:33;;;;;;;1.83;0.80;;;19.50;68.40;;;;;;5024475;28;20064;-38
2020/12/17 18:35:58;;;;;;;10.55;1.33;;;19.50;68.60;;;;;;5023941;28;20076;-37
2020/12/17 18:38:24;;;;;;;0.70;0.40;;;19.50;68.60;;;;;;5024829;28;20041;-38
2020/12/17 18:40:49;;;;;;;0.82;0.77;;;19.50;68.50;;;;;;5020733;28;20516;-37
2020/12/17 18:43:15;;;;;;;1.05;0.80;;;19.60;68.90;;;;;;5022248;28;20076;-37
2020/12/17 18:45:41;;;;;;;1.10;0.68;;;19.60;68.80;;;;;;5024397;28;20046;-37
2020/12/17 18:48:07;;;;;;;1.33;0.75;;;19.60;68.30;;;;;;5022532;28;20045;-37
2020/12/17 18:50:32;;;;;;;1.60;0.90;;;19.50;68.20;;;;;;5025992;28;20049;-38
2020/12/17 18:52:58;;;;;;;4.38;1.00;;;19.50;68.30;;;;;;5025778;28;20615;-37
2020/12/17 18:55:24;;;;;;;0.88;0.73;;;19.60;68.40;;;;;;5020630;28;20049;-37
2020/12/17 18:57:49;;;;;;;1.70;0.88;;;19.60;68.40;;;;;;5025909;28;20060;-38
2020/12/17 19:00:15;;;;;;;1.02;0.77;;;19.60;68.70;;;;;;5025271;28;20134;-37
2020/12/17 19:02:40;;;;;;;4.22;1.08;;;19.60;68.80;;;;;;5027526;28;20041;-37
2020/12/17 19:05:06;;;;;;;4.72;1.10;;;19.60;69.20;;;;;;5026060;28;20045;-38
2020/12/17 19:07:31;;;;;;;2.03;1.00;;;19.60;69.30;;;;;;5024602;28;20500;-38
2020/12/17 19:09:57;;;;;;;0.90;0.80;;;19.60;69.30;;;;;;5024419;28;20069;-42
2020/12/17 19:12:23;;;;;;;2.47;0.88;;;19.70;69.30;;;;;;5055507;28;20608;-38
2020/12/17 19:14:49;;;;;;;2.95;1.15;;;19.70;69.30;;;;;;5022180;28;20037;-38
2020/12/17 19:17:14;;;;;;;4.20;0.88;;;19.70;69.30;;;;;;5020135;28;20061;-43
2020/12/17 19:19:40;;;;;;;3.70;0.80;;;19.70;69.40;;;;;;5023307;28;20500;-37
2020/12/17 19:22:06;;;;;;;1.05;0.88;;;19.80;69.40;;;;;;5023381;28;20088;-38
2020/12/17 19:24:32;;;;;;;2.28;1.10;;;19.80;69.40;;;;;;5023232;28;20076;-36
2020/12/17 19:26:57;;;;;;;2.78;0.75;;;19.80;69.30;;;;;;5021773;28;20061;-37
2020/12/17 19:29:23;;;;;;;5.00;1.45;;;19.80;69.20;;;;;;5024091;28;20061;-37
2020/12/17 19:31:56;;;;;;;3.58;1.00;;;19.80;69.20;;;;;;5020696;28;20069;-36
2020/12/17 19:34:22;;;;;;;3.20;0.90;;;19.80;69.10;;;;;;5023186;28;20034;-35
2020/12/17 19:36:57;;;;;;;3.28;1.05;;;19.80;69.00;;;;;;5016270;28;20061;-37
2020/12/17 19:39:23;;;;;;;3.08;1.35;;;19.80;68.80;;;;;;5019710;28;20056;-37
2020/12/17 19:41:59;;;;;;;3.90;1.00;;;19.80;68.90;;;;;;5022036;28;20073;-37
2020/12/17 19:44:24;;;;;;;0.90;0.90;;;19.80;68.80;;;;;;5021012;28;20064;-36
2020/12/17 19:46:50;;;;;;;0.90;0.60;;;19.80;68.80;;;;;;5019220;28;20263;-37
2020/12/17 19:49:16;;;;;;;3.00;0.93;;;19.80;68.80;;;;;;5021814;28;20060;-37
2020/12/17 19:51:42;;;;;;;1.58;1.02;;;19.80;68.80;;;;;;5020869;28;20033;-37
2020/12/17 19:54:08;;;;;;;1.35;0.93;;;19.80;68.80;;;;;;5021212;28;20127;-39
2020/12/17 19:56:33;;;;;;;1.75;0.80;;;19.70;68.80;;;;;;5021698;28;20634;-35
2020/12/17 19:59:02;;;;;;;1.55;0.93;;;19.70;68.80;;;;;;5019407;28;20721;-38
2020/12/17 20:01:37;;;;;;;1.70;0.80;;;19.70;68.80;;;;;;5009910;28;20044;-36
2020/12/17 20:04:03;;;;;;;1.40;1.20;;;19.70;69.00;;;;;;5019138;28;20558;-35
2020/12/17 20:06:37;;;;;;;1.25;0.90;;;19.70;69.00;;;;;;5016401;28;20046;-36
2020/12/17 20:09:08;;;;;;;3.50;0.80;;;19.70;69.00;;;;;;5017493;28;20422;-36
2020/12/17 20:11:34;;;;;;;1.52;0.93;;;19.70;69.10;;;;;;5020163;28;20292;-36
2020/12/17 20:14:04;;;;;;;2.33;1.10;;;19.70;69.10;;;;;;5013948;28;20119;-37
2020/12/17 20:16:46;;;;;;;3.70;0.90;;;19.70;69.20;;;;;;5014771;28;20045;-38
2020/12/17 20:19:13;;;;;;;1.75;0.98;;;19.70;69.20;;;;;;5019584;28;20070;-37
2020/12/17 20:21:39;;;;;;;3.10;0.70;;;19.70;69.20;;;;;;5034042;28;20054;-36
2020/12/17 20:24:04;;;;;;;2.67;0.80;;;19.70;70.00;;;;;;5021531;28;20034;-36
2020/12/17 20:26:30;;;;;;;1.17;0.90;;;19.60;69.20;;;;;;5022955;28;20052;-37
2020/12/17 20:28:56;;;;;;;1.05;0.75;;;19.70;69.20;;;;;;5052146;28;20223;-36
2020/12/17 20:31:22;;;;;;;1.30;0.90;;;19.60;69.10;;;;;;5021016;28;20056;-36
2020/12/17 20:33:48;;;;;;;2.08;0.80;;;19.60;69.20;;;;;;5022659;28;20045;-36
2020/12/17 20:36:20;;;;;;;3.97;0.90;;;19.60;69.00;;;;;;5020525;28;20049;-39
2020/12/17 20:38:47;;;;;;;3.85;0.95;;;19.60;69.00;;;;;;5028399;28;20036;-39
2020/12/17 20:41:18;;;;;;;3.72;0.90;;;19.60;69.00;;;;;;5027160;28;20053;-36
2020/12/17 20:43:44;;;;;;;2.85;0.90;;;19.60;69.00;;;;;;5028792;28;20053;-39
2020/12/17 20:46:13;;;;;;;1.40;1.08;;;19.60;69.10;;;;;;5022719;28;20046;-37
2020/12/17 20:48:39;;;;;;;1.02;0.80;;;19.60;69.20;;;;;;5017745;28;20049;-37
2020/12/17 20:51:05;;;;;;;3.28;1.15;;;19.60;69.20;;;;;;5020361;28;20046;-37
2020/12/17 20:53:30;;;;;;;2.33;1.00;;;19.60;69.20;;;;;;5021892;28;20053;-38
2020/12/17 20:55:56;;;;;;;5.88;1.23;;;19.50;69.20;;;;;;5025327;28;20041;-38
2020/12/17 20:58:22;;;;;;;3.15;0.90;;;19.60;69.20;;;;;;5025461;28;20096;-38
2020/12/17 21:00:47;;;;;;;0.95;0.70;;;19.60;69.20;;;;;;5028719;28;20099;-37
2020/12/17 21:03:13;;;;;;;1.25;0.95;;;19.50;69.20;;;;;;5022516;28;20524;-36
2020/12/17 21:05:39;;;;;;;1.40;0.90;;;19.50;69.10;;;;;;5022849;28;20117;-36
2020/12/17 21:08:04;;;;;;;1.70;1.35;;;19.50;69.10;;;;;;5020521;28;20057;-36
2020/12/17 21:10:32;;;;;;;3.35;1.02;;;19.50;69.10;;;;;;5022153;28;20073;-36
2020/12/17 21:12:58;;;;;;;1.50;1.27;;;19.60;69.20;;;;;;5019711;28;20152;-37
2020/12/17 21:15:24;;;;;;;1.15;0.88;;;19.50;69.90;;;;;;5019644;28;20048;-36
2020/12/17 21:17:49;;;;;;;1.00;0.90;;;19.50;69.10;;;;;;5021713;28;20068;-35
2020/12/17 21:20:15;;;;;;;1.95;0.90;;;19.50;69.10;;;;;;5023104;28;20041;-36
2020/12/17 21:22:40;;;;;;;2.00;1.13;;;19.50;69.00;;;;;;5019281;28;20054;-37
2020/12/17 21:25:06;;;;;;;4.80;1.00;;;19.50;69.00;;;;;;5021431;28;20042;-41
2020/12/17 21:27:34;;;;;;;1.40;0.80;;;19.50;69.00;;;;;;5020118;28;20044;-36
2020/12/17 21:30:00;;;;;;;5.60;1.00;;;19.50;69.10;;;;;;5021032;28;20056;-37
2020/12/17 21:32:25;;;;;;;1.08;0.77;;;19.50;69.00;;;;;;5023066;28;20057;-35
2020/12/17 21:34:51;;;;;;;8.88;1.00;;;19.50;69.00;;;;;;5021512;28;20045;-36
2020/12/17 21:37:18;;;;;;;1.77;0.70;;;19.50;69.00;;;;;;5019953;28;20871;-36
2020/12/17 21:39:44;;;;;;;1.77;0.70;;;19.50;69.00;;;;;;5040130;28;20076;-39